Time;durP1;ratioP1;P1;durP2;ratioP2;P2;SDS_P1;SDS_P2;PMS_P1;PMS_P2;Temp;Humidity;BMP_temperature;BMP_pressure;BME280_temperature;BME280_humidity;BME280_pressure;Samples;Min_cycle;Max_cycle;Signal;HPM_P1;HPM_P2
2021/06/10 02:10:30;;;;;;;;;;;;;;;8.59;96.03;100053.19;5054494;23;19937;-84
2021/06/10 02:12:55;;;;;;;;;;;;;;;8.55;96.83;100057.66;4982363;28;19922;-84
2021/06/10 02:15:21;;;;;;;;;;;;;;;8.52;97.91;100049.84;4982525;28;19922;-84
2021/06/10 02:17:48;;;;;;;;;;;;;;;8.56;98.10;100048.00;4982648;28;19969;-85
2021/06/10 02:20:16;;;;;;;;;;;;;;;8.51;97.30;100046.34;4982790;28;19933;-85
2021/06/10 02:22:42;;;;;;;;;;;;;;;8.46;98.05;100047.41;4982086;28;19926;-84
2021/06/10 02:25:07;;;;;;;;;;;;;;;8.44;97.64;100050.09;4982301;28;20016;-84
2021/06/10 02:27:33;;;;;;;;;;;;;;;8.51;97.65;100040.19;4965692;28;20552;-84
2021/06/10 02:29:58;;;;;;;;;;;;;;;8.62;96.51;100045.16;4965353;28;19922;-84
2021/06/10 02:32:23;;;;;;;;;;;;;;;8.54;98.22;100046.25;4965419;28;19965;-84
2021/06/10 02:34:49;;;;;;;;;;;;;;;8.51;97.21;100037.56;4965117;28;19922;-84
2021/06/10 02:37:17;;;;;;;;;;;;;;;8.54;96.79;100046.25;4965036;28;20052;-81
2021/06/10 02:39:44;;;;;;;;;;;;;;;8.52;97.72;100041.91;4965499;28;19972;-83
2021/06/10 02:42:11;;;;;;;;;;;;;;;8.53;97.80;100036.59;4982277;28;19937;-83
2021/06/10 02:44:36;;;;;;;;;;;;;;;8.45;97.37;100035.97;4965057;28;20340;-83
2021/06/10 02:47:04;;;;;;;;;;;;;;;8.46;96.82;100040.34;4982091;28;19985;-82
2021/06/10 02:49:31;;;;;;;;;;;;;;;8.43;96.89;100039.53;4964915;28;20012;-82
2021/06/10 02:51:56;;;;;;;;;;;;;;;8.49;97.22;100042.88;4982387;28;19933;-82
2021/06/10 02:54:22;;;;;;;;;;;;;;;8.45;97.12;100035.97;4964509;28;19926;-81
2021/06/10 02:56:47;;;;;;;;;;;;;;;8.46;98.34;100036.84;4982405;28;20305;-82
2021/06/10 02:59:14;;;;;;;;;;;;;;;8.50;97.11;100036.72;4981715;28;20254;-82
2021/06/10 03:01:41;;;;;;;;;;;;;;;8.53;96.74;100044.50;4981488;28;19926;-83
2021/06/10 03:04:08;;;;;;;;;;;;;;;8.51;96.76;100046.34;4981906;28;19985;-83
2021/06/10 03:06:35;;;;;;;;;;;;;;;8.50;96.88;100043.75;4964618;28;20900;-82
2021/06/10 03:09:02;;;;;;;;;;;;;;;8.58;96.96;100046.16;4981912;28;20213;-82
2021/06/10 03:11:28;;;;;;;;;;;;;;;8.54;97.03;100038.31;4964661;28;19929;-82
2021/06/10 03:13:53;;;;;;;;;;;;;;;8.57;97.04;100036.50;4981329;28;19922;-83
2021/06/10 03:16:19;;;;;;;;;;;;;;;8.57;97.67;100034.75;4981333;28;20349;-84
2021/06/10 03:18:44;;;;;;;;;;;;;;;8.49;97.60;100034.97;4981263;28;20309;-83
2021/06/10 03:21:10;;;;;;;;;;;;;;;8.44;99.00;100039.53;4981425;28;19987;-82
2021/06/10 03:23:35;;;;;;;;;;;;;;;8.48;98.16;100043.78;4981713;28;20214;-83
2021/06/10 03:26:01;;;;;;;;;;;;;;;8.49;98.24;100042.88;4964274;28;20252;-82
2021/06/10 07:41:55;;;;;;;;;;;;;;;8.80;98.64;100081.56;4743152;26;19991;-84
2021/06/10 07:44:21;;;;;;;;;;;;;;;8.86;97.36;100089.31;4925683;29;20256;-85
2021/06/10 07:46:46;;;;;;;;;;;;;;;8.88;97.07;100082.19;4923062;29;19945;-83
2021/06/10 07:49:11;;;;;;;;;;;;;;;8.82;97.67;100087.69;4920624;29;20202;-82
2021/06/10 07:51:37;;;;;;;;;;;;;;;8.91;96.35;100084.72;4921914;29;19927;-82
2021/06/10 07:54:02;;;;;;;;;;;;;;;8.84;97.73;100087.63;4907592;29;20164;-85
2021/06/10 07:56:27;;;;;;;;;;;;;;;8.88;97.34;100090.13;4912722;29;19954;-82
2021/06/10 07:58:53;;;;;;;;;;;;;;;8.85;97.66;100095.50;4904285;29;20337;-82
2021/06/10 08:01:18;;;;;;;;;;;;;;;8.85;97.20;100089.34;4913864;29;19927;-83
2021/06/10 08:03:44;;;;;;;;;;;;;;;8.91;97.18;100092.66;4922336;29;19931;-81
2021/06/10 08:06:09;;;;;;;;;;;;;;;8.90;97.11;100090.97;4923007;29;19927;-83
2021/06/10 08:08:34;;;;;;;;;;;;;;;8.88;97.09;100087.47;4922244;29;20071;-83
2021/06/10 08:11:05;;;;;;;;;;;;;;;8.88;98.09;100086.63;4921892;29;20199;-82
2021/06/10 08:13:31;;;;;;;;;;;;;;;8.89;97.51;100086.56;4921287;29;19931;-84
2021/06/10 08:15:56;;;;;;;;;;;;;;;8.90;98.09;100092.72;4921881;29;19923;-83
2021/06/10 08:18:21;;;;;;;;;;;;;;;8.93;98.13;100089.13;4921858;29;19923;-83
2021/06/10 08:20:47;;;;;;;;;;;;;;;9.99;100.00;100083.78;4922135;29;19923;-84
2021/06/10 08:23:20;;;;;;;;;;;;;;;16.32;89.51;100061.13;4905150;29;19978;-81
2021/06/10 08:25:45;;;;;;;;;;;;;;;18.06;77.44;100065.81;4915515;29;19923;-84
2021/06/10 08:28:12;;;;;;;;;;;;;;;12.40;94.35;100074.13;4915956;29;20299;-86
2021/06/10 08:30:37;;;;;;;;;;;;;;;11.02;100.00;100075.56;4904369;29;19923;-85
2021/06/10 08:33:03;;;;;;;;;;;;;;;14.79;98.65;100074.53;4922007;29;19923;-84
2021/06/10 08:35:28;;;;;;;;;;;;;;;11.75;97.14;100071.63;4912225;29;19924;-83
2021/06/10 08:37:54;;;;;;;;;;;;;;;10.86;98.85;100072.66;4904753;29;19931;-84
2021/06/10 08:40:19;;;;;;;;;;;;;;;10.63;97.89;100079.72;4905551;29;19923;-86
2021/06/10 08:42:45;;;;;;;;;;;;;;;10.47;96.38;100081.22;4907411;29;20030;-84
2021/06/10 08:45:12;;;;;;;;;;;;;;;10.28;97.46;100083.66;4922442;29;20008;-83
2021/06/10 08:47:38;;;;;;;;;;;;;;;10.26;96.96;100090.78;4905649;29;19923;-83
2021/06/10 08:50:04;;;;;;;;;;;;;;;10.18;96.58;100091.94;4905440;29;20286;-83
2021/06/10 08:52:30;;;;;;;;;;;;;;;10.09;97.22;100083.47;4922211;29;19978;-83
2021/06/10 08:54:56;;;;;;;;;;;;;;;9.96;97.07;100091.00;4917346;29;19937;-84
2021/06/10 08:57:21;;;;;;;;;;;;;;;10.02;96.85;100087.25;4899759;29;20408;-83
2021/06/10 08:59:46;;;;;;;;;;;;;;;9.90;98.53;100081.47;4918616;29;19931;-83
2021/06/10 09:02:11;;;;;;;;;;;;;;;9.81;97.79;100084.44;4921627;29;19986;-82
2021/06/10 09:04:37;;;;;;;;;;;;;;;9.88;96.88;100080.66;4905402;29;19934;-83
2021/06/10 09:07:04;;;;;;;;;;;;;;;9.90;96.31;100084.13;4913611;29;20021;-83
2021/06/10 09:09:34;;;;;;;;;;;;;;;9.87;96.78;100084.22;4900901;29;19963;-83
2021/06/10 09:12:05;;;;;;;;;;;;;;;9.90;96.63;100073.53;4894821;29;20318;-83
2021/06/10 09:14:31;;;;;;;;;;;;;;;9.91;95.67;100077.91;4913802;29;19990;-85
2021/06/10 09:16:56;;;;;;;;;;;;;;;9.90;96.16;100084.13;4899284;29;20537;-83
2021/06/10 09:19:29;;;;;;;;;;;;;;;9.82;96.85;100084.38;4891087;29;20319;-84
2021/06/10 09:21:58;;;;;;;;;;;;;;;9.98;95.89;100075.91;4907092;29;19928;-83
2021/06/10 09:24:30;;;;;;;;;;;;;;;9.95;94.97;100082.16;4912342;29;19962;-82
2021/06/10 09:27:06;;;;;;;;;;;;;;;9.88;95.94;100091.25;4924594;29;19952;-84
2021/06/10 09:29:41;;;;;;;;;;;;;;;9.82;95.27;100096.75;4910258;29;20500;-87
2021/06/10 09:32:10;;;;;;;;;;;;;;;9.86;95.33;100090.47;4902192;29;19943;-84
2021/06/10 09:34:42;;;;;;;;;;;;;;;9.82;95.29;100087.03;4909706;29;20267;-84
2021/06/10 09:37:08;;;;;;;;;;;;;;;9.76;95.53;100083.75;4914867;29;20120;-83
2021/06/10 09:39:34;;;;;;;;;;;;;;;9.81;95.08;100079.16;4918473;29;20764;-83
2021/06/10 09:42:01;;;;;;;;;;;;;;;9.79;95.34;100079.19;4914083;29;19979;-83
2021/06/10 09:44:39;;;;;;;;;;;;;;;9.84;94.82;100075.53;4918184;29;19939;-84
2021/06/10 09:47:05;;;;;;;;;;;;;;;9.80;95.12;100072.13;4887049;29;19923;-84
2021/06/10 09:49:33;;;;;;;;;;;;;;;9.80;95.39;100082.72;4909192;29;19942;-84
2021/06/10 09:51:58;;;;;;;;;;;;;;;9.74;95.57;100085.59;4910477;29;20012;-84
2021/06/10 09:54:42;;;;;;;;;;;;;;;9.76;94.17;100084.59;4905915;29;20226;-83
2021/06/10 09:57:07;;;;;;;;;;;;;;;9.87;94.76;100084.22;4907051;29;19927;-86
2021/06/10 09:59:43;;;;;;;;;;;;;;;9.88;93.98;100079.81;4901703;29;20326;-83
2021/06/10 10:02:39;;;;;;;;;;;;;;;9.85;94.35;100074.63;4914475;29;19998;-85
2021/06/10 10:05:10;;;;;;;;;;;;;;;9.70;95.05;100079.53;4902461;29;19923;-84
2021/06/10 10:07:37;;;;;;;;;;;;;;;9.64;95.51;100072.66;4914283;29;19923;-83
2021/06/10 10:10:07;;;;;;;;;;;;;;;9.78;94.41;100068.66;4894905;29;19935;-84
2021/06/10 10:12:32;;;;;;;;;;;;;;;9.77;93.92;100064.31;4898444;29;19969;-83
2021/06/10 10:14:58;;;;;;;;;;;;;;;9.82;94.98;100071.16;4905492;29;19955;-83
2021/06/10 10:17:25;;;;;;;;;;;;;;;9.84;94.48;100076.38;4910349;29;19935;-84
2021/06/10 10:19:50;;;;;;;;;;;;;;;9.83;94.12;100066.75;4908457;29;20014;-83
2021/06/10 10:22:16;;;;;;;;;;;;;;;9.86;92.99;100061.34;4920806;29;20078;-83
2021/06/10 10:24:42;;;;;;;;;;;;;;;9.88;94.22;100072.72;4904381;29;19983;-84
2021/06/10 10:27:12;;;;;;;;;;;;;;;9.87;93.51;100068.34;4911617;29;19930;-83
2021/06/10 10:29:39;;;;;;;;;;;;;;;9.82;92.85;100067.66;4886939;29;19927;-83
2021/06/10 10:32:06;;;;;;;;;;;;;;;9.82;95.31;100060.56;4917698;29;19923;-83
2021/06/10 10:34:33;;;;;;;;;;;;;;;9.83;92.79;100058.81;4897645;29;20033;-83
2021/06/10 10:36:58;;;;;;;;;;;;;;;9.82;93.08;100059.72;4918310;29;19923;-82
2021/06/10 10:39:32;;;;;;;;;;;;;;;9.86;93.38;100064.00;4913269;29;19927;-83
2021/06/10 10:41:59;;;;;;;;;;;;;;;9.73;93.90;100052.09;4915724;29;20291;-83
2021/06/10 10:44:26;;;;;;;;;;;;;;;9.79;93.94;100054.53;4915676;29;19950;-84
2021/06/10 10:47:09;;;;;;;;;;;;;;;9.84;93.42;100055.22;4916318;29;19935;-83
2021/06/10 10:49:45;;;;;;;;;;;;;;;9.82;93.15;100047.31;4928880;29;19931;-83
2021/06/10 10:52:13;;;;;;;;;;;;;;;9.79;92.68;100049.22;4914939;29;19923;-82
2021/06/10 10:54:39;;;;;;;;;;;;;;;9.81;92.30;100036.81;4896989;29;19931;-84
2021/06/10 10:57:04;;;;;;;;;;;;;;;9.71;92.90;100041.56;4901343;29;20021;-83
2021/06/10 10:59:50;;;;;;;;;;;;;;;9.72;93.94;100043.28;4921981;29;19942;-83
2021/06/10 11:02:18;;;;;;;;;;;;;;;9.89;93.14;100050.66;4896062;29;19927;-82
2021/06/10 11:04:47;;;;;;;;;;;;;;;9.86;92.41;100040.16;4909104;29;19934;-82
2021/06/10 11:07:31;;;;;;;;;;;;;;;9.91;91.87;100043.50;4904222;29;19987;-83
2021/06/10 11:09:56;;;;;;;;;;;;;;;9.87;91.73;100047.16;4925016;29;20148;-82
2021/06/10 11:12:41;;;;;;;;;;;;;;;9.86;91.98;100034.88;4919677;29;19924;-86
2021/06/10 11:15:07;;;;;;;;;;;;;;;9.81;92.11;100040.34;4893308;29;19939;-82
2021/06/10 11:17:43;;;;;;;;;;;;;;;9.76;92.02;100030.81;4902282;29;19927;-83
2021/06/10 11:20:13;;;;;;;;;;;;;;;9.78;91.88;100032.50;4910250;29;20371;-82
2021/06/10 11:22:39;;;;;;;;;;;;;;;9.82;91.86;100027.94;4897971;29;19937;-82
2021/06/10 11:25:10;;;;;;;;;;;;;;;9.70;91.49;100023.97;4917624;29;19927;-84
2021/06/10 11:27:36;;;;;;;;;;;;;;;9.80;93.24;100021.84;4906620;29;20379;-83
2021/06/10 11:30:24;;;;;;;;;;;;;;;9.94;92.47;100009.00;4913827;29;19932;-84
2021/06/10 11:32:56;;;;;;;;;;;;;;;9.91;91.49;100011.75;4907850;29;20372;-83
2021/06/10 11:35:40;;;;;;;;;;;;;;;9.95;91.20;100009.84;4896279;29;20196;-86
2021/06/10 11:38:15;;;;;;;;;;;;;;;9.87;91.46;100015.41;4916204;29;19935;-84
2021/06/10 11:40:41;;;;;;;;;;;;;;;9.79;91.75;100012.19;4911821;29;20303;-82
2021/06/10 11:43:08;;;;;;;;;;;;;;;9.79;92.36;100006.88;4902062;29;19935;-84
2021/06/10 11:45:34;;;;;;;;;;;;;;;9.77;92.93;100008.72;4894717;29;19927;-83
2021/06/10 11:47:59;;;;;;;;;;;;;;;9.96;93.05;100009.78;4900231;29;19923;-83
2021/06/10 11:50:36;;;;;;;;;;;;;;;9.87;93.20;100010.13;4908759;29;20334;-83
2021/06/10 11:53:08;;;;;;;;;;;;;;;9.84;93.83;100007.56;4907009;29;19923;-83
2021/06/10 11:55:34;;;;;;;;;;;;;;;9.99;93.65;100001.72;4914119;29;19934;-85
2021/06/10 11:58:02;;;;;;;;;;;;;;;9.94;92.38;99997.50;4898473;29;20341;-86
2021/06/10 12:00:29;;;;;;;;;;;;;;;10.00;94.16;99999.94;4898194;29;19931;-83
2021/06/10 12:02:56;;;;;;;;;;;;;;;10.03;93.39;99994.53;4910335;29;19935;-82
2021/06/10 12:05:21;;;;;;;;;;;;;;;9.97;93.99;99985.06;4910882;29;19923;-84
2021/06/10 12:07:48;;;;;;;;;;;;;;;10.00;94.16;99986.69;4909857;29;19924;-82
2021/06/10 12:10:14;;;;;;;;;;;;;;;9.89;93.87;99989.78;4908304;29;20022;-84
2021/06/10 12:12:42;;;;;;;;;;;;;;;9.97;93.17;99984.16;4892355;29;19923;-83
2021/06/10 12:15:09;;;;;;;;;;;;;;;10.13;93.93;99979.16;4911996;29;19975;-83
2021/06/10 12:17:50;;;;;;;;;;;;;;;10.04;95.47;99984.81;4912437;29;20495;-83
2021/06/10 12:20:17;;;;;;;;;;;;;;;10.03;94.31;99986.59;4913413;29;19929;-83
2021/06/10 12:22:43;;;;;;;;;;;;;;;10.13;94.92;99974.75;4910514;29;19930;-83
2021/06/10 12:25:20;;;;;;;;;;;;;;;10.24;95.29;99966.38;4914492;29;19951;-84
2021/06/10 12:27:46;;;;;;;;;;;;;;;10.17;93.30;99972.84;4913544;29;19931;-83
2021/06/10 12:30:21;;;;;;;;;;;;;;;10.17;94.13;99967.53;4898307;29;19923;-84
2021/06/10 12:32:46;;;;;;;;;;;;;;;10.23;94.51;99977.91;4904560;29;19930;-83
2021/06/10 12:35:11;;;;;;;;;;;;;;;10.18;93.45;99966.63;4920747;29;19991;-83
2021/06/10 12:37:37;;;;;;;;;;;;;;;10.10;93.56;99973.97;4912136;29;19923;-84
2021/06/10 12:40:03;;;;;;;;;;;;;;;10.29;95.38;99977.66;4896004;29;19962;-84
2021/06/10 12:42:28;;;;;;;;;;;;;;;10.32;93.81;99964.34;4905006;29;19927;-84
2021/06/10 12:44:53;;;;;;;;;;;;;;;10.19;93.17;99963.03;4897914;29;20285;-83
2021/06/10 12:47:32;;;;;;;;;;;;;;;10.11;94.12;99981.00;4921526;29;19923;-83
2021/06/10 12:49:57;;;;;;;;;;;;;;;10.11;92.70;99971.28;4914216;29;19923;-83
2021/06/10 12:52:25;;;;;;;;;;;;;;;10.10;92.60;99963.38;4901111;29;20211;-83
2021/06/10 12:54:56;;;;;;;;;;;;;;;10.12;90.56;99956.28;4890567;29;20266;-83
2021/06/10 12:57:23;;;;;;;;;;;;;;;10.08;92.01;99952.84;4908662;29;19942;-84
2021/06/10 12:59:53;;;;;;;;;;;;;;;10.11;90.96;99959.84;4903852;29;19948;-83
2021/06/10 13:02:18;;;;;;;;;;;;;;;10.20;90.94;99959.50;4906457;29;19924;-83
2021/06/10 13:04:44;;;;;;;;;;;;;;;10.11;91.09;99958.03;4902512;29;19975;-83
2021/06/10 13:07:10;;;;;;;;;;;;;;;10.10;91.68;99958.09;4886164;29;20456;-83
2021/06/10 13:09:42;;;;;;;;;;;;;;;10.11;90.75;99958.03;4901021;29;19924;-83
2021/06/10 13:12:11;;;;;;;;;;;;;;;10.09;91.84;99951.94;4906404;29;19943;-83
2021/06/10 13:14:36;;;;;;;;;;;;;;;10.15;91.20;99950.88;4899682;29;19953;-83
2021/06/10 13:17:02;;;;;;;;;;;;;;;10.21;89.56;99955.03;4898828;29;19927;-83
2021/06/10 13:19:27;;;;;;;;;;;;;;;10.04;90.38;99953.06;4915620;29;19930;-83
2021/06/10 13:22:11;;;;;;;;;;;;;;;10.00;89.50;99952.28;4915274;29;19931;-84
2021/06/10 13:24:41;;;;;;;;;;;;;;;10.00;90.56;99933.75;4915375;29;19931;-84
2021/06/10 13:27:13;;;;;;;;;;;;;;;10.03;89.58;99935.44;4921666;29;19969;-83
2021/06/10 13:29:58;;;;;;;;;;;;;;;10.09;89.78;99943.16;4934880;29;19927;-84
2021/06/10 13:32:24;;;;;;;;;;;;;;;9.99;89.55;99940.00;4934083;29;20325;-83
2021/06/10 13:34:58;;;;;;;;;;;;;;;10.06;93.13;99936.19;4930446;29;19939;-84
2021/06/10 13:37:24;;;;;;;;;;;;;;;9.97;88.67;99932.13;4915404;29;19946;-83
2021/06/10 13:39:49;;;;;;;;;;;;;;;10.08;89.85;99933.47;4914357;29;19924;-83
2021/06/10 13:42:14;;;;;;;;;;;;;;;9.95;91.11;99933.94;4914173;29;19931;-83
2021/06/10 13:44:40;;;;;;;;;;;;;;;10.05;90.11;99936.22;4914690;29;20274;-83
2021/06/10 13:47:05;;;;;;;;;;;;;;;10.00;89.90;99932.00;4913001;29;20075;-83
2021/06/10 13:49:31;;;;;;;;;;;;;;;9.98;90.90;99927.66;4914359;29;19924;-83
2021/06/10 13:51:56;;;;;;;;;;;;;;;10.05;90.32;99925.66;4913899;29;19919;-83
2021/06/10 13:54:22;;;;;;;;;;;;;;;10.28;91.69;99914.16;4913292;29;19950;-83
2021/06/10 13:56:47;;;;;;;;;;;;;;;10.00;90.61;99920.53;4896767;29;19930;-83
2021/06/10 13:59:13;;;;;;;;;;;;;;;10.00;89.90;99910.81;4914173;29;19952;-84
2021/06/10 14:01:38;;;;;;;;;;;;;;;9.97;90.47;99908.28;4908471;29;19928;-84
2021/06/10 14:04:04;;;;;;;;;;;;;;;10.08;89.88;99912.28;4885130;29;20352;-82
2021/06/10 14:06:29;;;;;;;;;;;;;;;9.98;90.36;99902.06;4902665;29;19935;-83
2021/06/10 14:08:56;;;;;;;;;;;;;;;9.87;90.95;99901.59;4903012;29;19924;-82
2021/06/10 14:11:21;;;;;;;;;;;;;;;10.01;93.17;99909.03;4910054;29;19930;-83
2021/06/10 14:13:47;;;;;;;;;;;;;;;9.92;90.41;99907.56;4921010;29;19986;-83
2021/06/10 14:16:18;;;;;;;;;;;;;;;9.84;89.52;99899.06;4917498;29;19923;-83
2021/06/10 14:18:47;;;;;;;;;;;;;;;9.95;89.36;99902.16;4895473;29;19930;-83
2021/06/10 14:21:13;;;;;;;;;;;;;;;9.92;89.09;99899.63;4904780;29;20331;-83
2021/06/10 14:23:38;;;;;;;;;;;;;;;9.86;88.78;99897.25;4919910;29;19977;-83
2021/06/10 14:26:03;;;;;;;;;;;;;;;9.87;88.51;99898.97;4913484;29;19990;-82
2021/06/10 14:28:29;;;;;;;;;;;;;;;10.06;89.80;99893.81;4925560;29;20180;-84
2021/06/10 14:32:18;;;;;;;;;;;;;;;10.02;89.59;99896.63;4904484;29;20358;-85
2021/06/10 14:33:58;;;;;;;;;;;;;;;9.90;89.37;99893.56;4924652;29;20269;-84
2021/06/10 14:36:25;;;;;;;;;;;;;;;9.93;89.10;99895.22;4928331;29;20013;-84
2021/06/10 14:38:52;;;;;;;;;;;;;;;9.89;89.11;99881.25;4927293;29;19922;-83
2021/06/10 14:41:17;;;;;;;;;;;;;;;9.94;90.33;99879.28;4923743;29;20310;-82
2021/06/10 14:43:42;;;;;;;;;;;;;;;9.87;89.42;99875.13;4911217;29;19934;-83
2021/06/10 14:46:07;;;;;;;;;;;;;;;9.80;89.81;99876.31;4893897;29;19955;-83
2021/06/10 14:48:33;;;;;;;;;;;;;;;9.83;88.16;99876.19;4910408;29;19980;-83
2021/06/10 14:50:58;;;;;;;;;;;;;;;9.83;91.37;99878.84;4925184;29;19931;-83
2021/06/10 14:53:23;;;;;;;;;;;;;;;9.84;89.87;99877.06;4907675;29;19923;-82
2021/06/10 14:55:49;;;;;;;;;;;;;;;9.84;89.62;99872.59;4924836;29;19934;-81
2021/06/10 14:58:14;;;;;;;;;;;;;;;9.85;89.80;99879.63;4922427;29;19955;-83
2021/06/10 15:00:39;;;;;;;;;;;;;;;9.91;89.03;99867.97;4910447;29;20336;-86
2021/06/10 15:03:05;;;;;;;;;;;;;;;9.85;88.96;99871.69;4923093;29;20002;-83
2021/06/10 15:05:30;;;;;;;;;;;;;;;9.85;88.40;99874.34;4908552;29;19923;-82
2021/06/10 15:07:55;;;;;;;;;;;;;;;9.78;88.78;99862.25;4904727;29;20014;-83
2021/06/10 15:10:21;;;;;;;;;;;;;;;9.74;88.21;99865.97;4916243;29;19934;-83
2021/06/10 15:12:47;;;;;;;;;;;;;;;9.82;88.53;99863.88;4932002;29;19923;-85
2021/06/10 15:15:13;;;;;;;;;;;;;;;9.99;88.43;99866.72;4934480;29;19927;-82
2021/06/10 15:17:39;;;;;;;;;;;;;;;9.91;88.30;99871.47;4932487;29;19936;-84
2021/06/10 15:20:05;;;;;;;;;;;;;;;9.87;88.10;99867.19;4923766;29;19923;-82
2021/06/10 15:22:30;;;;;;;;;;;;;;;9.95;88.81;99858.97;4922917;29;19970;-87
2021/06/10 15:24:56;;;;;;;;;;;;;;;9.84;89.09;99861.16;4926670;29;19923;-86
2021/06/10 15:27:22;;;;;;;;;;;;;;;9.98;87.79;99864.13;4918746;29;19934;-85
2021/06/10 15:29:48;;;;;;;;;;;;;;;9.83;88.34;99855.03;4930709;29;19938;-83
2021/06/10 15:32:13;;;;;;;;;;;;;;;9.78;88.50;99856.97;4924017;29;19923;-83
2021/06/10 15:34:39;;;;;;;;;;;;;;;9.76;88.82;99854.38;4928898;29;19930;-82
2021/06/10 15:37:08;;;;;;;;;;;;;;;9.77;87.76;99844.66;4927039;29;20000;-83
2021/06/10 15:39:34;;;;;;;;;;;;;;;9.80;87.83;99855.13;4910123;29;20651;-85
2021/06/10 15:41:59;;;;;;;;;;;;;;;9.92;88.43;99852.00;4925573;29;19934;-84
2021/06/10 15:44:25;;;;;;;;;;;;;;;9.90;88.14;99850.34;4929838;29;20325;-85
2021/06/10 15:46:51;;;;;;;;;;;;;;;9.90;88.86;99855.63;4931637;29;19923;-82
2021/06/10 15:49:18;;;;;;;;;;;;;;;9.80;88.10;99853.34;4925972;29;19929;-85
2021/06/10 15:51:44;;;;;;;;;;;;;;;9.77;88.81;99852.59;4905883;29;19923;-83
2021/06/10 15:54:10;;;;;;;;;;;;;;;9.81;87.76;99849.78;4928788;29;19923;-86
2021/06/10 15:56:37;;;;;;;;;;;;;;;9.82;86.97;99853.28;4928638;29;19982;-84
2021/06/10 15:59:02;;;;;;;;;;;;;;;9.92;88.22;99852.00;4926854;29;20017;-84
2021/06/10 16:01:27;;;;;;;;;;;;;;;9.99;90.51;99844.69;4923874;29;19927;-83
2021/06/10 16:03:53;;;;;;;;;;;;;;;9.83;88.91;99844.44;4925975;29;19943;-84
2021/06/10 16:06:19;;;;;;;;;;;;;;;9.87;88.27;99834.59;4928658;29;19931;-83
2021/06/10 16:08:44;;;;;;;;;;;;;;;9.83;88.75;99844.44;4929473;29;20358;-83
2021/06/10 16:11:10;;;;;;;;;;;;;;;9.86;89.08;99836.38;4926124;29;19955;-83
2021/06/10 16:13:36;;;;;;;;;;;;;;;9.72;88.94;99842.19;4925740;29;19934;-82
2021/06/10 16:16:01;;;;;;;;;;;;;;;9.80;89.65;99844.56;4921878;29;19916;-83
2021/06/10 16:18:27;;;;;;;;;;;;;;;9.82;90.11;99840.91;4928170;29;19972;-83
2021/06/10 16:20:52;;;;;;;;;;;;;;;9.86;90.04;99839.03;4924430;29;19930;-81
2021/06/10 16:23:18;;;;;;;;;;;;;;;9.93;89.59;99845.78;4919965;29;21372;-85
2021/06/10 16:25:43;;;;;;;;;;;;;;;9.85;90.46;99837.28;4918209;29;19931;-84
2021/06/10 16:28:09;;;;;;;;;;;;;;;9.79;89.74;99837.53;4919913;29;19982;-83
2021/06/10 16:30:34;;;;;;;;;;;;;;;9.92;90.86;99844.06;4916172;29;19923;-82
2021/06/10 16:33:00;;;;;;;;;;;;;;;9.95;89.20;99838.63;4913513;29;19923;-83
2021/06/10 16:35:25;;;;;;;;;;;;;;;10.00;90.38;99842.00;4895842;29;19924;-84
2021/06/10 16:37:52;;;;;;;;;;;;;;;9.88;91.85;99842.47;4899953;29;19923;-82
2021/06/10 16:40:18;;;;;;;;;;;;;;;9.96;91.49;99844.81;4916244;29;19931;-82
2021/06/10 16:42:44;;;;;;;;;;;;;;;9.79;91.70;99842.81;4915463;29;20204;-81
2021/06/10 16:45:10;;;;;;;;;;;;;;;9.91;91.15;99837.06;4913830;29;19923;-81
2021/06/10 16:47:36;;;;;;;;;;;;;;;9.87;90.89;99834.59;4919266;29;19923;-85
2021/06/10 16:50:04;;;;;;;;;;;;;;;9.86;89.84;99836.38;4916005;29;19976;-82
2021/06/10 16:52:29;;;;;;;;;;;;;;;9.99;89.18;99840.25;4913342;29;19952;-82
2021/06/10 16:54:55;;;;;;;;;;;;;;;9.93;90.09;99834.34;4915149;29;19927;-82
2021/06/10 16:57:20;;;;;;;;;;;;;;;9.88;90.36;99839.81;4916631;29;19942;-82
2021/06/10 16:59:55;;;;;;;;;;;;;;;9.92;90.20;99829.97;4916744;29;20306;-83
2021/06/10 17:03:59;;;;;;;;;;;;;;;9.93;89.61;99827.25;4908834;29;19938;-83
2021/06/10 17:05:11;;;;;;;;;;;;;;;9.92;89.23;99827.31;4910343;29;19933;-82
2021/06/10 17:07:37;;;;;;;;;;;;;;;9.86;90.31;99819.63;4912182;29;20009;-82
2021/06/10 17:10:03;;;;;;;;;;;;;;;9.90;89.96;99823.88;4913376;29;19973;-82
2021/06/10 17:12:28;;;;;;;;;;;;;;;9.91;89.53;99821.19;4910420;29;19954;-82
2021/06/10 17:14:53;;;;;;;;;;;;;;;9.95;89.81;99816.63;4917933;29;19927;-82
2021/06/10 17:17:19;;;;;;;;;;;;;;;9.94;90.08;99826.34;4917321;29;19949;-83
2021/06/10 17:19:45;;;;;;;;;;;;;;;10.00;91.39;99825.22;4914563;29;20326;-83
2021/06/10 17:22:11;;;;;;;;;;;;;;;9.90;91.27;99826.53;4913933;29;19958;-82
2021/06/10 17:24:36;;;;;;;;;;;;;;;9.98;91.54;99822.63;4908629;29;20444;-82
2021/06/10 17:27:02;;;;;;;;;;;;;;;10.03;90.28;99819.81;4904327;29;19953;-83
2021/06/10 17:29:29;;;;;;;;;;;;;;;10.00;89.59;99826.09;4912839;29;19923;-82
2021/06/10 17:31:55;;;;;;;;;;;;;;;9.95;89.29;99825.41;4908680;29;19939;-82
2021/06/10 17:34:20;;;;;;;;;;;;;;;10.02;91.06;99827.81;4912086;29;19923;-82
2021/06/10 17:36:46;;;;;;;;;;;;;;;10.05;89.75;99825.94;4914367;29;20041;-82
2021/06/10 17:39:11;;;;;;;;;;;;;;;9.93;90.17;99826.41;4913780;29;19923;-84
2021/06/10 17:41:37;;;;;;;;;;;;;;;9.92;89.25;99833.47;4912730;29;19931;-83
2021/06/10 17:44:02;;;;;;;;;;;;;;;9.98;89.70;99827.09;4916380;29;20014;-82
2021/06/10 17:46:28;;;;;;;;;;;;;;;9.95;89.48;99833.34;4917183;29;19924;-82
2021/06/10 17:48:53;;;;;;;;;;;;;;;9.90;90.48;99827.38;4924865;29;19942;-85
2021/06/10 17:51:19;;;;;;;;;;;;;;;9.93;91.84;99827.25;4907013;29;20366;-82
2021/06/10 17:53:45;;;;;;;;;;;;;;;9.95;90.25;99828.06;4906682;29;19923;-81
2021/06/10 17:56:10;;;;;;;;;;;;;;;10.11;89.71;99824.81;4909401;29;19959;-85
2021/06/10 17:58:35;;;;;;;;;;;;;;;9.98;88.08;99822.63;4926018;29;19930;-86
2021/06/10 18:01:03;;;;;;;;;;;;;;;10.03;88.63;99821.59;4923223;29;19934;-85
2021/06/10 18:03:29;;;;;;;;;;;;;;;9.92;88.52;99822.88;4914293;29;19938;-82
2021/06/10 18:05:55;;;;;;;;;;;;;;;9.95;88.49;99822.75;4913422;29;19922;-83
2021/06/10 18:08:20;;;;;;;;;;;;;;;9.92;88.80;99817.59;4918347;29;19935;-83
2021/06/10 18:10:45;;;;;;;;;;;;;;;9.90;89.58;99823.88;4922743;29;20239;-85
2021/06/10 18:13:13;;;;;;;;;;;;;;;9.86;89.67;99825.78;4918732;29;19931;-82
2021/06/10 18:15:39;;;;;;;;;;;;;;;9.87;89.54;99831.94;4919780;29;19931;-82
2021/06/10 18:18:05;;;;;;;;;;;;;;;9.80;89.74;99828.69;4918403;29;19941;-82
2021/06/10 18:20:33;;;;;;;;;;;;;;;9.88;89.58;99828.38;4922388;29;19934;-85
2021/06/10 18:23:00;;;;;;;;;;;;;;;9.93;89.54;99826.41;4924184;29;19928;-83
2021/06/10 18:25:27;;;;;;;;;;;;;;;9.97;89.86;99828.00;4921037;29;20030;-81
2021/06/10 18:27:56;;;;;;;;;;;;;;;9.88;91.34;99831.03;4919640;29;20359;-82
2021/06/10 18:30:21;;;;;;;;;;;;;;;9.87;91.54;99827.50;4913970;29;19923;-82
2021/06/10 18:32:49;;;;;;;;;;;;;;;9.87;91.20;99827.50;4903493;29;19947;-85
2021/06/10 18:35:15;;;;;;;;;;;;;;;9.85;91.31;99828.50;4920445;29;20017;-86
2021/06/10 18:37:41;;;;;;;;;;;;;;;9.81;91.51;99830.38;4914562;29;19931;-82
2021/06/10 18:40:08;;;;;;;;;;;;;;;9.88;91.76;99834.53;4926433;29;20026;-82
2021/06/10 18:42:34;;;;;;;;;;;;;;;9.91;90.21;99836.22;4924023;29;20359;-82
2021/06/10 18:44:59;;;;;;;;;;;;;;;9.98;91.44;99833.22;4926212;29;19923;-84
2021/06/10 18:47:25;;;;;;;;;;;;;;;9.88;91.25;99837.19;4916134;29;19953;-86
2021/06/10 18:49:52;;;;;;;;;;;;;;;9.89;90.48;99838.03;4925814;29;19927;-82
2021/06/10 18:52:17;;;;;;;;;;;;;;;9.90;90.77;99840.63;4919311;29;20322;-84
2021/06/10 18:54:43;;;;;;;;;;;;;;;9.94;91.33;99831.66;4915219;29;19935;-82
2021/06/10 18:57:09;;;;;;;;;;;;;;;9.94;92.19;99831.66;4932854;29;19922;-86
2021/06/10 18:59:38;;;;;;;;;;;;;;;9.96;91.25;99835.09;4933492;29;20287;-85
2021/06/10 19:02:04;;;;;;;;;;;;;;;9.92;90.43;99843.19;4918917;29;19927;-84
2021/06/10 19:04:30;;;;;;;;;;;;;;;9.93;90.65;99843.16;4924554;29;19924;-85
2021/06/10 19:06:56;;;;;;;;;;;;;;;9.90;92.06;99843.25;4929076;29;19928;-85
2021/06/10 19:09:22;;;;;;;;;;;;;;;9.94;90.95;99844.88;4922297;29;20211;-84
2021/06/10 19:11:48;;;;;;;;;;;;;;;9.89;91.62;99844.19;4931442;29;20355;-84
2021/06/10 19:14:14;;;;;;;;;;;;;;;9.96;92.35;99853.63;4919451;29;19923;-82